sensor_id;sensor_type;location;lat;lon;timestamp;pressure;altitude;pressure_sealevel;temperature;humidity
38267;BME280;24063;51.794;19.578;2022-07-29T00:00:14;99002.23;;;14.27;67.35
38267;BME280;24063;51.794;19.578;2022-07-29T00:01:35;99002.89;;;14.26;67.52
38267;BME280;24063;51.794;19.578;2022-07-29T00:02:37;99004.36;;;14.25;67.60
38267;BME280;24063;51.794;19.578;2022-07-29T00:03:39;99003.24;;;14.23;68.00
38267;BME280;24063;51.794;19.578;2022-07-29T00:04:40;99004.51;;;14.23;68.18
38267;BME280;24063;51.794;19.578;2022-07-29T00:05:42;99007.63;;;14.21;68.48
38267;BME280;24063;51.794;19.578;2022-07-29T00:06:44;99007.96;;;14.20;68.64
38267;BME280;24063;51.794;19.578;2022-07-29T00:07:46;99003.14;;;14.17;68.65
38267;BME280;24063;51.794;19.578;2022-07-29T00:08:48;99003.98;;;14.16;68.87
38267;BME280;24063;51.794;19.578;2022-07-29T00:09:50;99003.45;;;14.14;69.09
38267;BME280;24063;51.794;19.578;2022-07-29T00:10:53;99004.13;;;14.13;69.05
38267;BME280;24063;51.794;19.578;2022-07-29T00:11:59;99002.04;;;14.11;69.20
38267;BME280;24063;51.794;19.578;2022-07-29T00:13:01;99004.27;;;14.09;69.39
38267;BME280;24063;51.794;19.578;2022-07-29T00:14:04;99005.48;;;14.08;69.64
38267;BME280;24063;51.794;19.578;2022-07-29T00:15:06;99001.75;;;14.06;69.55
38267;BME280;24063;51.794;19.578;2022-07-29T00:16:08;99002.58;;;14.05;69.60
38267;BME280;24063;51.794;19.578;2022-07-29T00:17:10;99004.11;;;14.04;69.59
38267;BME280;24063;51.794;19.578;2022-07-29T00:18:12;99003.41;;;14.03;69.48
38267;BME280;24063;51.794;19.578;2022-07-29T00:19:13;99003.79;;;14.03;69.72
38267;BME280;24063;51.794;19.578;2022-07-29T00:20:15;99007.45;;;14.02;69.71
38267;BME280;24063;51.794;19.578;2022-07-29T00:21:17;99000.94;;;14.01;69.99
38267;BME280;24063;51.794;19.578;2022-07-29T00:22:19;99003.07;;;14.00;70.08
38267;BME280;24063;51.794;19.578;2022-07-29T00:23:21;99000.52;;;13.98;70.18
38267;BME280;24063;51.794;19.578;2022-07-29T00:24:23;99003.23;;;13.98;70.33
38267;BME280;24063;51.794;19.578;2022-07-29T00:25:25;99001.45;;;13.98;70.46
38267;BME280;24063;51.794;19.578;2022-07-29T00:26:26;99001.95;;;13.97;70.36
38267;BME280;24063;51.794;19.578;2022-07-29T00:27:33;99003.48;;;13.97;70.24
38267;BME280;24063;51.794;19.578;2022-07-29T00:28:35;99003.91;;;13.96;70.02
38267;BME280;24063;51.794;19.578;2022-07-29T00:29:36;99004.95;;;13.96;70.08
38267;BME280;24063;51.794;19.578;2022-07-29T00:30:38;99004.98;;;13.95;69.73
38267;BME280;24063;51.794;19.578;2022-07-29T00:31:40;99003.30;;;13.94;69.23
38267;BME280;24063;51.794;19.578;2022-07-29T00:32:42;99000.41;;;13.94;69.24
38267;BME280;24063;51.794;19.578;2022-07-29T00:33:43;99004.34;;;13.93;69.04
38267;BME280;24063;51.794;19.578;2022-07-29T00:34:45;99006.92;;;13.94;68.85
38267;BME280;24063;51.794;19.578;2022-07-29T00:36:05;99005.23;;;13.94;68.79
38267;BME280;24063;51.794;19.578;2022-07-29T00:37:07;99009.32;;;13.95;68.80
38267;BME280;24063;51.794;19.578;2022-07-29T00:38:13;99008.70;;;13.95;68.73
38267;BME280;24063;51.794;19.578;2022-07-29T00:39:15;99010.22;;;13.96;68.52
38267;BME280;24063;51.794;19.578;2022-07-29T00:40:17;99010.55;;;13.96;68.73
38267;BME280;24063;51.794;19.578;2022-07-29T00:41:24;99011.73;;;13.96;69.00
38267;BME280;24063;51.794;19.578;2022-07-29T00:42:25;99013.70;;;13.95;69.10
38267;BME280;24063;51.794;19.578;2022-07-29T00:43:27;99018.18;;;13.94;68.93
38267;BME280;24063;51.794;19.578;2022-07-29T00:44:29;99015.46;;;13.93;68.77
38267;BME280;24063;51.794;19.578;2022-07-29T00:45:30;99016.73;;;13.93;68.68
38267;BME280;24063;51.794;19.578;2022-07-29T00:46:32;99020.52;;;13.92;68.91
38267;BME280;24063;51.794;19.578;2022-07-29T00:47:34;99014.62;;;13.92;69.03
38267;BME280;24063;51.794;19.578;2022-07-29T00:48:36;99015.84;;;13.90;69.18
38267;BME280;24063;51.794;19.578;2022-07-29T00:49:39;99016.28;;;13.89;69.04
38267;BME280;24063;51.794;19.578;2022-07-29T00:50:42;99017.09;;;13.88;69.11
38267;BME280;24063;51.794;19.578;2022-07-29T00:51:44;99015.46;;;13.87;68.96
38267;BME280;24063;51.794;19.578;2022-07-29T00:52:47;99017.86;;;13.87;69.05
38267;BME280;24063;51.794;19.578;2022-07-29T00:53:49;99018.09;;;13.87;69.12
38267;BME280;24063;51.794;19.578;2022-07-29T00:54:52;99019.76;;;13.87;69.16
38267;BME280;24063;51.794;19.578;2022-07-29T00:55:54;99018.51;;;13.87;69.34
38267;BME280;24063;51.794;19.578;2022-07-29T00:56:58;99017.25;;;13.87;69.39
38267;BME280;24063;51.794;19.578;2022-07-29T00:58:00;99015.11;;;13.86;69.27
38267;BME280;24063;51.794;19.578;2022-07-29T00:59:02;99020.05;;;13.86;69.18
38267;BME280;24063;51.794;19.578;2022-07-29T01:00:07;99016.96;;;13.86;69.10
38267;BME280;24063;51.794;19.578;2022-07-29T01:01:09;99018.98;;;13.86;69.12
38267;BME280;24063;51.794;19.578;2022-07-29T01:02:11;99014.30;;;13.86;69.13
38267;BME280;24063;51.794;19.578;2022-07-29T01:03:12;99016.84;;;13.86;69.13
38267;BME280;24063;51.794;19.578;2022-07-29T01:04:14;99010.95;;;13.87;69.10
38267;BME280;24063;51.794;19.578;2022-07-29T01:05:19;99008.57;;;13.87;69.00
38267;BME280;24063;51.794;19.578;2022-07-29T01:06:24;99012.43;;;13.88;69.15
38267;BME280;24063;51.794;19.578;2022-07-29T01:07:27;99014.21;;;13.89;69.16
38267;BME280;24063;51.794;19.578;2022-07-29T01:08:32;99010.29;;;13.89;69.56
38267;BME280;24063;51.794;19.578;2022-07-29T01:09:36;99008.30;;;13.88;69.58
38267;BME280;24063;51.794;19.578;2022-07-29T01:10:49;99011.30;;;13.86;69.97
38267;BME280;24063;51.794;19.578;2022-07-29T01:11:51;99010.13;;;13.84;69.95
38267;BME280;24063;51.794;19.578;2022-07-29T01:12:57;99008.79;;;13.81;70.03
38267;BME280;24063;51.794;19.578;2022-07-29T01:14:01;99012.23;;;13.80;70.26
38267;BME280;24063;51.794;19.578;2022-07-29T01:15:06;99009.14;;;13.78;70.37
38267;BME280;24063;51.794;19.578;2022-07-29T01:16:22;99008.63;;;13.76;70.38
38267;BME280;24063;51.794;19.578;2022-07-29T01:17:38;99005.02;;;13.73;70.51
38267;BME280;24063;51.794;19.578;2022-07-29T01:19:02;98999.30;;;13.69;70.76
38267;BME280;24063;51.794;19.578;2022-07-29T01:20:17;98999.05;;;13.66;70.78
38267;BME280;24063;51.794;19.578;2022-07-29T01:23:00;98997.31;;;13.60;70.63
38267;BME280;24063;51.794;19.578;2022-07-29T01:24:30;98998.89;;;13.58;71.06
38267;BME280;24063;51.794;19.578;2022-07-29T01:27:30;98998.60;;;13.55;71.29
38267;BME280;24063;51.794;19.578;2022-07-29T01:29:58;98993.67;;;13.52;71.52
38267;BME280;24063;51.794;19.578;2022-07-29T01:31:03;98993.73;;;13.52;71.55
38267;BME280;24063;51.794;19.578;2022-07-29T01:32:10;98991.58;;;13.51;71.03
38267;BME280;24063;51.794;19.578;2022-07-29T01:33:33;98989.69;;;13.50;71.10
38267;BME280;24063;51.794;19.578;2022-07-29T01:35:28;98992.99;;;13.51;71.40
38267;BME280;24063;51.794;19.578;2022-07-29T01:36:37;98992.91;;;13.51;71.03
38267;BME280;24063;51.794;19.578;2022-07-29T01:38:19;98991.41;;;13.53;71.34
38267;BME280;24063;51.794;19.578;2022-07-29T01:39:28;98993.08;;;13.53;71.12
38267;BME280;24063;51.794;19.578;2022-07-29T01:40:49;98992.63;;;13.54;71.13
38267;BME280;24063;51.794;19.578;2022-07-29T01:42:07;98988.94;;;13.54;71.07
38267;BME280;24063;51.794;19.578;2022-07-29T01:43:16;98990.61;;;13.55;71.16
38267;BME280;24063;51.794;19.578;2022-07-29T01:44:27;98992.90;;;13.55;71.01
38267;BME280;24063;51.794;19.578;2022-07-29T01:45:56;98989.46;;;13.54;70.82
38267;BME280;24063;51.794;19.578;2022-07-29T01:47:07;98992.63;;;13.54;70.73
38267;BME280;24063;51.794;19.578;2022-07-29T01:48:16;98991.55;;;13.53;70.36
38267;BME280;24063;51.794;19.578;2022-07-29T01:49:29;98994.81;;;13.53;70.35
38267;BME280;24063;51.794;19.578;2022-07-29T01:50:41;98991.23;;;13.53;70.32
38267;BME280;24063;51.794;19.578;2022-07-29T01:51:57;98991.46;;;13.52;70.48
38267;BME280;24063;51.794;19.578;2022-07-29T01:53:04;98990.05;;;13.51;70.47
38267;BME280;24063;51.794;19.578;2022-07-29T01:54:40;98990.49;;;13.51;70.34
38267;BME280;24063;51.794;19.578;2022-07-29T01:55:48;98990.88;;;13.51;70.92
38267;BME280;24063;51.794;19.578;2022-07-29T01:56:55;98989.29;;;13.50;70.99
38267;BME280;24063;51.794;19.578;2022-07-29T01:58:00;98990.00;;;13.51;71.29
38267;BME280;24063;51.794;19.578;2022-07-29T01:59:06;98990.94;;;13.49;71.33
38267;BME280;24063;51.794;19.578;2022-07-29T02:00:12;98993.45;;;13.48;71.45
38267;BME280;24063;51.794;19.578;2022-07-29T02:01:16;98995.04;;;13.46;71.42
38267;BME280;24063;51.794;19.578;2022-07-29T02:02:21;98995.04;;;13.45;71.55
38267;BME280;24063;51.794;19.578;2022-07-29T02:03:26;98993.05;;;13.43;71.74
38267;BME280;24063;51.794;19.578;2022-07-29T02:04:32;98995.25;;;13.41;71.82
38267;BME280;24063;51.794;19.578;2022-07-29T02:05:38;98995.96;;;13.39;72.13
38267;BME280;24063;51.794;19.578;2022-07-29T02:06:44;98995.55;;;13.36;72.22
38267;BME280;24063;51.794;19.578;2022-07-29T02:07:49;98998.39;;;13.34;72.12
38267;BME280;24063;51.794;19.578;2022-07-29T02:08:53;98993.56;;;13.31;72.17
38267;BME280;24063;51.794;19.578;2022-07-29T02:10:01;98998.67;;;13.29;72.37
38267;BME280;24063;51.794;19.578;2022-07-29T02:11:05;98996.56;;;13.27;72.40
38267;BME280;24063;51.794;19.578;2022-07-29T02:12:10;98997.56;;;13.24;72.60
38267;BME280;24063;51.794;19.578;2022-07-29T02:13:15;98994.27;;;13.21;72.59
38267;BME280;24063;51.794;19.578;2022-07-29T02:14:21;98993.70;;;13.19;72.64
38267;BME280;24063;51.794;19.578;2022-07-29T02:15:29;98989.95;;;13.18;72.61
38267;BME280;24063;51.794;19.578;2022-07-29T02:16:35;98991.64;;;13.17;72.58
38267;BME280;24063;51.794;19.578;2022-07-29T02:17:57;98989.38;;;13.14;72.69
38267;BME280;24063;51.794;19.578;2022-07-29T02:19:02;98989.35;;;13.11;72.62
38267;BME280;24063;51.794;19.578;2022-07-29T02:20:04;98986.06;;;13.09;72.99
38267;BME280;24063;51.794;19.578;2022-07-29T02:21:07;98988.39;;;13.08;72.97
38267;BME280;24063;51.794;19.578;2022-07-29T02:22:18;98990.52;;;13.07;72.95
38267;BME280;24063;51.794;19.578;2022-07-29T02:23:22;98991.61;;;13.07;72.86
38267;BME280;24063;51.794;19.578;2022-07-29T02:24:26;98988.29;;;13.08;73.14
38267;BME280;24063;51.794;19.578;2022-07-29T02:25:29;98989.36;;;13.09;73.30
38267;BME280;24063;51.794;19.578;2022-07-29T02:26:41;98990.48;;;13.09;73.36
38267;BME280;24063;51.794;19.578;2022-07-29T02:27:46;98985.02;;;13.10;73.43
38267;BME280;24063;51.794;19.578;2022-07-29T02:28:52;98984.80;;;13.11;73.30
38267;BME280;24063;51.794;19.578;2022-07-29T02:29:58;98984.02;;;13.11;73.42
38267;BME280;24063;51.794;19.578;2022-07-29T02:31:02;98983.16;;;13.12;73.54
38267;BME280;24063;51.794;19.578;2022-07-29T02:32:08;98979.63;;;13.12;73.44
38267;BME280;24063;51.794;19.578;2022-07-29T02:33:15;98980.98;;;13.13;72.99
38267;BME280;24063;51.794;19.578;2022-07-29T02:34:20;98980.50;;;13.13;73.62
38267;BME280;24063;51.794;19.578;2022-07-29T02:35:23;98975.94;;;13.13;73.16
38267;BME280;24063;51.794;19.578;2022-07-29T02:36:27;98977.30;;;13.12;72.97
38267;BME280;24063;51.794;19.578;2022-07-29T02:37:32;98978.59;;;13.13;73.05
38267;BME280;24063;51.794;19.578;2022-07-29T02:38:35;98977.73;;;13.13;73.05
38267;BME280;24063;51.794;19.578;2022-07-29T02:40:03;98977.95;;;13.13;72.88
38267;BME280;24063;51.794;19.578;2022-07-29T02:41:14;98976.86;;;13.13;72.83
38267;BME280;24063;51.794;19.578;2022-07-29T02:42:18;98975.55;;;13.13;72.84
38267;BME280;24063;51.794;19.578;2022-07-29T02:43:22;98973.29;;;13.12;72.65
38267;BME280;24063;51.794;19.578;2022-07-29T02:44:26;98972.52;;;13.12;72.73
38267;BME280;24063;51.794;19.578;2022-07-29T02:45:34;98972.15;;;13.11;72.84
38267;BME280;24063;51.794;19.578;2022-07-29T02:46:41;98967.32;;;13.10;73.01
38267;BME280;24063;51.794;19.578;2022-07-29T02:47:49;98966.29;;;13.10;73.24
38267;BME280;24063;51.794;19.578;2022-07-29T02:49:06;98966.67;;;13.10;73.38
38267;BME280;24063;51.794;19.578;2022-07-29T02:50:19;98966.41;;;13.10;73.44
38267;BME280;24063;51.794;19.578;2022-07-29T02:51:31;98971.34;;;13.10;73.45
38267;BME280;24063;51.794;19.578;2022-07-29T02:52:58;98969.31;;;13.10;73.36
38267;BME280;24063;51.794;19.578;2022-07-29T02:54:06;98968.89;;;13.11;73.49
38267;BME280;24063;51.794;19.578;2022-07-29T02:57:00;98969.00;;;13.10;73.39
38267;BME280;24063;51.794;19.578;2022-07-29T02:59:27;98971.34;;;13.09;73.36
38267;BME280;24063;51.794;19.578;2022-07-29T03:00:31;98971.51;;;13.09;73.02
38267;BME280;24063;51.794;19.578;2022-07-29T03:01:40;98971.06;;;13.10;73.13
38267;BME280;24063;51.794;19.578;2022-07-29T03:02:45;98972.91;;;13.11;72.93
38267;BME280;24063;51.794;19.578;2022-07-29T03:03:53;98972.25;;;13.11;73.01
38267;BME280;24063;51.794;19.578;2022-07-29T03:04:57;98968.23;;;13.12;73.09
38267;BME280;24063;51.794;19.578;2022-07-29T03:06:03;98971.22;;;13.13;72.93
38267;BME280;24063;51.794;19.578;2022-07-29T03:07:06;98968.54;;;13.14;72.86
38267;BME280;24063;51.794;19.578;2022-07-29T03:08:11;98971.25;;;13.15;72.83
38267;BME280;24063;51.794;19.578;2022-07-29T03:09:14;98969.84;;;13.14;72.61
38267;BME280;24063;51.794;19.578;2022-07-29T03:10:16;98971.04;;;13.15;72.43
38267;BME280;24063;51.794;19.578;2022-07-29T03:11:18;98969.84;;;13.14;72.43
38267;BME280;24063;51.794;19.578;2022-07-29T03:12:41;98966.32;;;13.15;72.43
38267;BME280;24063;51.794;19.578;2022-07-29T03:13:44;98970.91;;;13.15;72.29
38267;BME280;24063;51.794;19.578;2022-07-29T03:14:48;98968.95;;;13.16;72.29
38267;BME280;24063;51.794;19.578;2022-07-29T03:15:51;98969.21;;;13.18;72.33
38267;BME280;24063;51.794;19.578;2022-07-29T03:16:53;98967.05;;;13.19;72.58
38267;BME280;24063;51.794;19.578;2022-07-29T03:17:56;98967.86;;;13.19;72.64
38267;BME280;24063;51.794;19.578;2022-07-29T03:18:59;98970.17;;;13.21;72.69
38267;BME280;24063;51.794;19.578;2022-07-29T03:20:02;98971.77;;;13.22;72.65
38267;BME280;24063;51.794;19.578;2022-07-29T03:21:04;98972.00;;;13.22;72.46
38267;BME280;24063;51.794;19.578;2022-07-29T03:22:06;98971.68;;;13.23;72.49
38267;BME280;24063;51.794;19.578;2022-07-29T03:23:09;98972.38;;;13.24;72.30
38267;BME280;24063;51.794;19.578;2022-07-29T03:24:24;98967.36;;;13.26;72.41
38267;BME280;24063;51.794;19.578;2022-07-29T03:25:26;98968.60;;;13.28;72.58
38267;BME280;24063;51.794;19.578;2022-07-29T03:26:29;98972.88;;;13.29;72.51
38267;BME280;24063;51.794;19.578;2022-07-29T03:27:31;98970.37;;;13.30;72.34
38267;BME280;24063;51.794;19.578;2022-07-29T03:28:32;98967.45;;;13.32;72.53
38267;BME280;24063;51.794;19.578;2022-07-29T03:29:34;98968.60;;;13.32;72.45
38267;BME280;24063;51.794;19.578;2022-07-29T03:30:36;98970.23;;;13.33;72.57
38267;BME280;24063;51.794;19.578;2022-07-29T03:31:39;98970.14;;;13.34;72.49
38267;BME280;24063;51.794;19.578;2022-07-29T03:32:44;98970.35;;;13.35;72.41
38267;BME280;24063;51.794;19.578;2022-07-29T03:33:46;98972.63;;;13.37;72.33
38267;BME280;24063;51.794;19.578;2022-07-29T03:34:47;98971.11;;;13.37;72.31
38267;BME280;24063;51.794;19.578;2022-07-29T03:35:49;98969.64;;;13.38;72.39
38267;BME280;24063;51.794;19.578;2022-07-29T03:36:51;98969.89;;;13.39;72.18
38267;BME280;24063;51.794;19.578;2022-07-29T03:37:53;98969.20;;;13.38;72.15
38267;BME280;24063;51.794;19.578;2022-07-29T03:38:55;98969.34;;;13.39;72.35
38267;BME280;24063;51.794;19.578;2022-07-29T03:39:58;98968.33;;;13.38;72.47
38267;BME280;24063;51.794;19.578;2022-07-29T03:41:05;98974.40;;;13.40;72.94
38267;BME280;24063;51.794;19.578;2022-07-29T03:42:10;98973.36;;;13.40;73.17
38267;BME280;24063;51.794;19.578;2022-07-29T03:43:16;98975.20;;;13.40;73.20
38267;BME280;24063;51.794;19.578;2022-07-29T03:44:21;98974.02;;;13.40;72.78
38267;BME280;24063;51.794;19.578;2022-07-29T03:45:25;98974.16;;;13.41;72.67
38267;BME280;24063;51.794;19.578;2022-07-29T03:46:31;98976.54;;;13.43;72.53
38267;BME280;24063;51.794;19.578;2022-07-29T03:47:37;98978.15;;;13.46;72.69
38267;BME280;24063;51.794;19.578;2022-07-29T03:48:56;98979.09;;;13.50;72.76
38267;BME280;24063;51.794;19.578;2022-07-29T03:50:06;98980.58;;;13.53;72.16
38267;BME280;24063;51.794;19.578;2022-07-29T03:51:12;98982.52;;;13.57;72.05
38267;BME280;24063;51.794;19.578;2022-07-29T03:52:14;98986.49;;;13.60;72.30
38267;BME280;24063;51.794;19.578;2022-07-29T03:53:16;98985.60;;;13.64;72.21
38267;BME280;24063;51.794;19.578;2022-07-29T03:54:19;98985.94;;;13.66;72.18
38267;BME280;24063;51.794;19.578;2022-07-29T03:55:22;98985.88;;;13.69;71.97
38267;BME280;24063;51.794;19.578;2022-07-29T03:56:25;98984.16;;;13.72;71.97
38267;BME280;24063;51.794;19.578;2022-07-29T03:57:30;98986.77;;;13.77;71.85
38267;BME280;24063;51.794;19.578;2022-07-29T03:58:34;98985.43;;;13.81;71.66
38267;BME280;24063;51.794;19.578;2022-07-29T03:59:37;98986.55;;;13.84;71.93
38267;BME280;24063;51.794;19.578;2022-07-29T04:00:41;98985.16;;;13.87;72.01
38267;BME280;24063;51.794;19.578;2022-07-29T04:01:44;98986.98;;;13.89;71.95
38267;BME280;24063;51.794;19.578;2022-07-29T04:02:47;98987.17;;;13.91;72.28
38267;BME280;24063;51.794;19.578;2022-07-29T04:03:50;98987.42;;;13.93;72.11
38267;BME280;24063;51.794;19.578;2022-07-29T04:04:53;98987.84;;;13.95;71.98
38267;BME280;24063;51.794;19.578;2022-07-29T04:06:06;98988.48;;;13.97;71.85
38267;BME280;24063;51.794;19.578;2022-07-29T04:07:12;98987.04;;;13.98;71.85
38267;BME280;24063;51.794;19.578;2022-07-29T04:08:14;98987.23;;;14.02;71.79
38267;BME280;24063;51.794;19.578;2022-07-29T04:09:15;98988.02;;;14.04;71.73
38267;BME280;24063;51.794;19.578;2022-07-29T04:10:18;98986.29;;;14.08;71.37
38267;BME280;24063;51.794;19.578;2022-07-29T04:11:31;98992.38;;;14.14;71.56
38267;BME280;24063;51.794;19.578;2022-07-29T04:12:32;98988.46;;;14.18;71.25
38267;BME280;24063;51.794;19.578;2022-07-29T04:13:34;98989.83;;;14.23;71.36
38267;BME280;24063;51.794;19.578;2022-07-29T04:14:36;98991.50;;;14.27;71.25
38267;BME280;24063;51.794;19.578;2022-07-29T04:15:37;98992.44;;;14.32;71.05
38267;BME280;24063;51.794;19.578;2022-07-29T04:16:39;98994.45;;;14.37;70.57
38267;BME280;24063;51.794;19.578;2022-07-29T04:17:41;98998.20;;;14.40;70.56
38267;BME280;24063;51.794;19.578;2022-07-29T04:18:43;98996.69;;;14.45;70.51
38267;BME280;24063;51.794;19.578;2022-07-29T04:19:44;98999.02;;;14.49;70.57
38267;BME280;24063;51.794;19.578;2022-07-29T04:20:46;99003.33;;;14.53;70.29
38267;BME280;24063;51.794;19.578;2022-07-29T04:21:48;99003.13;;;14.57;70.28
38267;BME280;24063;51.794;19.578;2022-07-29T04:22:50;99000.71;;;14.60;70.14
38267;BME280;24063;51.794;19.578;2022-07-29T04:23:52;98997.15;;;14.63;70.11
38267;BME280;24063;51.794;19.578;2022-07-29T04:24:54;98997.23;;;14.64;70.11
38267;BME280;24063;51.794;19.578;2022-07-29T04:26:03;98996.29;;;14.66;69.78
38267;BME280;24063;51.794;19.578;2022-07-29T04:27:05;98998.23;;;14.66;69.60
38267;BME280;24063;51.794;19.578;2022-07-29T04:28:08;99000.84;;;14.68;69.52
38267;BME280;24063;51.794;19.578;2022-07-29T04:29:10;99001.14;;;14.70;69.67
38267;BME280;24063;51.794;19.578;2022-07-29T04:30:13;99004.09;;;14.73;69.56
38267;BME280;24063;51.794;19.578;2022-07-29T04:31:14;99007.86;;;14.76;69.38
38267;BME280;24063;51.794;19.578;2022-07-29T04:32:16;99004.01;;;14.79;69.27
38267;BME280;24063;51.794;19.578;2022-07-29T04:33:18;99001.85;;;14.82;69.37
38267;BME280;24063;51.794;19.578;2022-07-29T04:34:20;98999.47;;;14.84;69.41
38267;BME280;24063;51.794;19.578;2022-07-29T04:35:22;98999.61;;;14.86;69.45
38267;BME280;24063;51.794;19.578;2022-07-29T04:36:23;98998.67;;;14.87;69.59
38267;BME280;24063;51.794;19.578;2022-07-29T04:37:30;98998.85;;;14.90;69.50
38267;BME280;24063;51.794;19.578;2022-07-29T04:38:32;99001.60;;;14.92;69.51
38267;BME280;24063;51.794;19.578;2022-07-29T04:39:33;99001.25;;;14.94;69.67
38267;BME280;24063;51.794;19.578;2022-07-29T04:40:35;98995.27;;;14.96;69.70
38267;BME280;24063;51.794;19.578;2022-07-29T04:41:39;98994.73;;;15.00;69.75
38267;BME280;24063;51.794;19.578;2022-07-29T04:42:43;98999.46;;;15.04;69.73
38267;BME280;24063;51.794;19.578;2022-07-29T04:43:48;98996.77;;;15.06;69.80
38267;BME280;24063;51.794;19.578;2022-07-29T04:44:50;98996.34;;;15.09;69.65
38267;BME280;24063;51.794;19.578;2022-07-29T04:45:52;99000.05;;;15.12;69.84
38267;BME280;24063;51.794;19.578;2022-07-29T04:46:54;98996.09;;;15.15;69.24
38267;BME280;24063;51.794;19.578;2022-07-29T04:47:55;98998.29;;;15.18;68.89
38267;BME280;24063;51.794;19.578;2022-07-29T04:48:57;99000.54;;;15.20;68.91
38267;BME280;24063;51.794;19.578;2022-07-29T04:49:59;98998.85;;;15.22;68.65
38267;BME280;24063;51.794;19.578;2022-07-29T04:51:01;98996.54;;;15.25;68.53
38267;BME280;24063;51.794;19.578;2022-07-29T04:52:03;98999.42;;;15.28;68.62
38267;BME280;24063;51.794;19.578;2022-07-29T04:53:06;98998.02;;;15.30;68.60
38267;BME280;24063;51.794;19.578;2022-07-29T04:54:08;98997.55;;;15.34;68.41
38267;BME280;24063;51.794;19.578;2022-07-29T04:55:09;98998.04;;;15.37;68.13
38267;BME280;24063;51.794;19.578;2022-07-29T04:56:11;99000.17;;;15.40;68.07
38267;BME280;24063;51.794;19.578;2022-07-29T04:57:13;99000.02;;;15.42;68.07
38267;BME280;24063;51.794;19.578;2022-07-29T04:58:14;99000.47;;;15.45;68.03
38267;BME280;24063;51.794;19.578;2022-07-29T04:59:16;99000.81;;;15.47;67.71
38267;BME280;24063;51.794;19.578;2022-07-29T05:00:18;98998.81;;;15.50;67.60
38267;BME280;24063;51.794;19.578;2022-07-29T05:01:20;98996.82;;;15.52;67.68
38267;BME280;24063;51.794;19.578;2022-07-29T05:02:22;98994.02;;;15.53;67.60
38267;BME280;24063;51.794;19.578;2022-07-29T05:03:23;98998.02;;;15.55;67.32
38267;BME280;24063;51.794;19.578;2022-07-29T05:04:25;98996.69;;;15.56;67.18
38267;BME280;24063;51.794;19.578;2022-07-29T05:05:27;98990.19;;;15.57;66.91
38267;BME280;24063;51.794;19.578;2022-07-29T05:06:29;98990.82;;;15.58;66.98
38267;BME280;24063;51.794;19.578;2022-07-29T05:07:30;98993.04;;;15.60;67.25
38267;BME280;24063;51.794;19.578;2022-07-29T05:08:32;98991.75;;;15.62;67.23
38267;BME280;24063;51.794;19.578;2022-07-29T05:09:34;98997.48;;;15.64;67.46
38267;BME280;24063;51.794;19.578;2022-07-29T05:10:35;98993.02;;;15.67;67.29
38267;BME280;24063;51.794;19.578;2022-07-29T05:11:39;98998.02;;;15.72;67.28
38267;BME280;24063;51.794;19.578;2022-07-29T05:12:41;98997.65;;;15.75;67.39
38267;BME280;24063;51.794;19.578;2022-07-29T05:13:42;98995.05;;;15.78;67.47
38267;BME280;24063;51.794;19.578;2022-07-29T05:14:47;98996.55;;;15.82;67.28
38267;BME280;24063;51.794;19.578;2022-07-29T05:15:49;98995.09;;;15.87;67.17
38267;BME280;24063;51.794;19.578;2022-07-29T05:16:51;98995.99;;;15.92;67.51
38267;BME280;24063;51.794;19.578;2022-07-29T05:17:54;98997.42;;;15.96;67.33
38267;BME280;24063;51.794;19.578;2022-07-29T05:18:55;98994.94;;;16.01;66.96
38267;BME280;24063;51.794;19.578;2022-07-29T05:19:57;98992.58;;;16.05;66.92
38267;BME280;24063;51.794;19.578;2022-07-29T05:20:59;98992.62;;;16.09;67.04
38267;BME280;24063;51.794;19.578;2022-07-29T05:22:01;98993.56;;;16.13;66.66
38267;BME280;24063;51.794;19.578;2022-07-29T05:23:02;98996.53;;;16.19;66.67
38267;BME280;24063;51.794;19.578;2022-07-29T05:24:04;98995.19;;;16.23;66.39
38267;BME280;24063;51.794;19.578;2022-07-29T05:25:07;99000.04;;;16.26;65.74
38267;BME280;24063;51.794;19.578;2022-07-29T05:26:10;99002.15;;;16.27;65.27
38267;BME280;24063;51.794;19.578;2022-07-29T05:27:12;98997.60;;;16.28;65.22
38267;BME280;24063;51.794;19.578;2022-07-29T05:28:14;98996.08;;;16.30;65.50
38267;BME280;24063;51.794;19.578;2022-07-29T05:29:16;98997.70;;;16.31;65.31
38267;BME280;24063;51.794;19.578;2022-07-29T05:30:38;98996.46;;;16.35;65.53
38267;BME280;24063;51.794;19.578;2022-07-29T05:31:40;98997.21;;;16.39;65.13
38267;BME280;24063;51.794;19.578;2022-07-29T05:32:41;98998.04;;;16.41;65.03
38267;BME280;24063;51.794;19.578;2022-07-29T05:33:43;98995.79;;;16.44;64.71
38267;BME280;24063;51.794;19.578;2022-07-29T05:34:45;98993.29;;;16.47;64.88
38267;BME280;24063;51.794;19.578;2022-07-29T05:35:52;98998.14;;;16.50;64.66
38267;BME280;24063;51.794;19.578;2022-07-29T05:37:00;98993.14;;;16.54;65.17
38267;BME280;24063;51.794;19.578;2022-07-29T05:38:03;98993.40;;;16.57;65.35
38267;BME280;24063;51.794;19.578;2022-07-29T05:39:05;98997.48;;;16.61;65.10
38267;BME280;24063;51.794;19.578;2022-07-29T05:40:07;98994.56;;;16.65;64.92
38267;BME280;24063;51.794;19.578;2022-07-29T05:41:09;98999.85;;;16.67;64.88
38267;BME280;24063;51.794;19.578;2022-07-29T05:42:11;98999.62;;;16.70;64.93
38267;BME280;24063;51.794;19.578;2022-07-29T05:43:13;98998.88;;;16.74;64.72
38267;BME280;24063;51.794;19.578;2022-07-29T05:44:15;98999.55;;;16.77;64.42
38267;BME280;24063;51.794;19.578;2022-07-29T05:45:17;98997.75;;;16.82;64.93
38267;BME280;24063;51.794;19.578;2022-07-29T05:46:19;98995.95;;;16.85;64.50
38267;BME280;24063;51.794;19.578;2022-07-29T05:47:21;98998.98;;;16.89;64.35
38267;BME280;24063;51.794;19.578;2022-07-29T05:48:24;99000.41;;;16.94;64.30